sensor_id;sensor_type;location;lat;lon;timestamp;P1;P2;P0
42510;PMS7003;28141;51.120;17.114;2022-10-17T00:00:18;16;8;6
42510;PMS7003;28141;51.120;17.114;2022-10-17T00:03:51;16;9;7
42510;PMS7003;28141;51.120;17.114;2022-10-17T00:06:54;19;11;6
42510;PMS7003;28141;51.120;17.114;2022-10-17T00:09:58;18;11;6
42510;PMS7003;28141;51.120;17.114;2022-10-17T00:13:02;17;9;6
42510;PMS7003;28141;51.120;17.114;2022-10-17T00:16:06;15;9;6
42510;PMS7003;28141;51.120;17.114;2022-10-17T00:19:10;18;10;7
42510;PMS7003;28141;51.120;17.114;2022-10-17T00:22:14;16;9;7
42510;PMS7003;28141;51.120;17.114;2022-10-17T00:25:17;19;10;7
42510;PMS7003;28141;51.120;17.114;2022-10-17T00:28:21;17;9;7
42510;PMS7003;28141;51.120;17.114;2022-10-17T00:31:25;21;12;7
42510;PMS7003;28141;51.120;17.114;2022-10-17T00:34:29;18;10;6
42510;PMS7003;28141;51.120;17.114;2022-10-17T00:37:59;18;11;7
42510;PMS7003;28141;51.120;17.114;2022-10-17T00:41:02;17;10;7
42510;PMS7003;28141;51.120;17.114;2022-10-17T00:44:55;15;9;7
42510;PMS7003;28141;51.120;17.114;2022-10-17T00:47:21;17;10;7
42510;PMS7003;28141;51.120;17.114;2022-10-17T00:50:25;18;11;8
42510;PMS7003;28141;51.120;17.114;2022-10-17T00:53:30;18;11;7
42510;PMS7003;28141;51.120;17.114;2022-10-17T00:56:33;14;7;6
42510;PMS7003;28141;51.120;17.114;2022-10-17T00:59:38;17;10;7
42510;PMS7003;28141;51.120;17.114;2022-10-17T01:02:46;18;10;7
42510;PMS7003;28141;51.120;17.114;2022-10-17T01:06:16;16;9;7
42510;PMS7003;28141;51.120;17.114;2022-10-17T01:09:20;18;10;7
42510;PMS7003;28141;51.120;17.114;2022-10-17T01:12:24;17;9;7
42510;PMS7003;28141;51.120;17.114;2022-10-17T01:32:26;18;10;6
42510;PMS7003;28141;51.120;17.114;2022-10-17T01:39:23;19;10;6
42510;PMS7003;28141;51.120;17.114;2022-10-17T01:42:41;19;10;7
42510;PMS7003;28141;51.120;17.114;2022-10-17T01:49:30;18;10;7
42510;PMS7003;28141;51.120;17.114;2022-10-17T01:52:40;17;10;6
42510;PMS7003;28141;51.120;17.114;2022-10-17T01:55:48;18;12;7
42510;PMS7003;28141;51.120;17.114;2022-10-17T01:58:56;18;12;8
42510;PMS7003;28141;51.120;17.114;2022-10-17T02:02:05;18;10;7
42510;PMS7003;28141;51.120;17.114;2022-10-17T02:05:11;17;10;7
42510;PMS7003;28141;51.120;17.114;2022-10-17T02:08:23;18;11;7
42510;PMS7003;28141;51.120;17.114;2022-10-17T02:28:46;17;10;7
42510;PMS7003;28141;51.120;17.114;2022-10-17T02:35:13;21;12;8
42510;PMS7003;28141;51.120;17.114;2022-10-17T02:38:18;21;14;9
42510;PMS7003;28141;51.120;17.114;2022-10-17T02:41:51;20;11;9
42510;PMS7003;28141;51.120;17.114;2022-10-17T02:44:59;23;15;10
42510;PMS7003;28141;51.120;17.114;2022-10-17T02:48:05;27;15;11
42510;PMS7003;28141;51.120;17.114;2022-10-17T02:51:19;24;17;11
42510;PMS7003;28141;51.120;17.114;2022-10-17T02:58:11;26;18;11
42510;PMS7003;28141;51.120;17.114;2022-10-17T03:01:21;24;17;12
42510;PMS7003;28141;51.120;17.114;2022-10-17T03:04:25;27;18;12
42510;PMS7003;28141;51.120;17.114;2022-10-17T03:07:28;26;19;14
42510;PMS7003;28141;51.120;17.114;2022-10-17T03:10:31;29;18;13
42510;PMS7003;28141;51.120;17.114;2022-10-17T03:13:35;30;20;14
42510;PMS7003;28141;51.120;17.114;2022-10-17T03:16:38;28;19;12
42510;PMS7003;28141;51.120;17.114;2022-10-17T03:19:42;27;18;13
42510;PMS7003;28141;51.120;17.114;2022-10-17T03:22:45;28;19;13
42510;PMS7003;28141;51.120;17.114;2022-10-17T03:25:49;27;20;14
42510;PMS7003;28141;51.120;17.114;2022-10-17T03:29:21;27;19;13
42510;PMS7003;28141;51.120;17.114;2022-10-17T03:32:24;30;21;14
42510;PMS7003;28141;51.120;17.114;2022-10-17T03:35:28;32;21;15
42510;PMS7003;28141;51.120;17.114;2022-10-17T03:38:32;30;19;14
42510;PMS7003;28141;51.120;17.114;2022-10-17T03:43:18;31;22;14
42510;PMS7003;28141;51.120;17.114;2022-10-17T03:46:22;30;20;14
42510;PMS7003;28141;51.120;17.114;2022-10-17T03:49:25;29;22;15
42510;PMS7003;28141;51.120;17.114;2022-10-17T03:52:29;29;21;14
42510;PMS7003;28141;51.120;17.114;2022-10-17T03:55:32;32;23;16
42510;PMS7003;28141;51.120;17.114;2022-10-17T03:58:36;28;20;15
42510;PMS7003;28141;51.120;17.114;2022-10-17T04:01:40;31;22;14
42510;PMS7003;28141;51.120;17.114;2022-10-17T04:04:44;28;20;15
42510;PMS7003;28141;51.120;17.114;2022-10-17T04:07:47;30;21;15
42510;PMS7003;28141;51.120;17.114;2022-10-17T04:10:51;30;21;15
42510;PMS7003;28141;51.120;17.114;2022-10-17T04:13:55;30;22;15
42510;PMS7003;28141;51.120;17.114;2022-10-17T04:17:29;28;20;15
42510;PMS7003;28141;51.120;17.114;2022-10-17T04:20:33;30;21;15
42510;PMS7003;28141;51.120;17.114;2022-10-17T04:23:37;30;21;15
42510;PMS7003;28141;51.120;17.114;2022-10-17T04:26:42;29;19;14
42510;PMS7003;28141;51.120;17.114;2022-10-17T04:29:45;29;20;15
42510;PMS7003;28141;51.120;17.114;2022-10-17T04:32:49;33;23;16
42510;PMS7003;28141;51.120;17.114;2022-10-17T04:39:02;30;22;16
42510;PMS7003;28141;51.120;17.114;2022-10-17T04:42:07;34;23;16
42510;PMS7003;28141;51.120;17.114;2022-10-17T04:45:38;31;22;15
42510;PMS7003;28141;51.120;17.114;2022-10-17T04:48:41;31;22;16
42510;PMS7003;28141;51.120;17.114;2022-10-17T04:51:45;29;22;15
42510;PMS7003;28141;51.120;17.114;2022-10-17T04:54:48;28;20;14
42510;PMS7003;28141;51.120;17.114;2022-10-17T04:57:51;30;21;14
42510;PMS7003;28141;51.120;17.114;2022-10-17T05:00:55;31;22;15
42510;PMS7003;28141;51.120;17.114;2022-10-17T05:03:59;30;23;15
42510;PMS7003;28141;51.120;17.114;2022-10-17T05:07:02;32;22;14
42510;PMS7003;28141;51.120;17.114;2022-10-17T05:10:06;29;21;15
42510;PMS7003;28141;51.120;17.114;2022-10-17T05:13:10;32;24;16
42510;PMS7003;28141;51.120;17.114;2022-10-17T05:16:14;30;22;16
42510;PMS7003;28141;51.120;17.114;2022-10-17T05:19:18;32;24;17
42510;PMS7003;28141;51.120;17.114;2022-10-17T05:22:21;32;24;16
42510;PMS7003;28141;51.120;17.114;2022-10-17T05:25:54;34;24;17
42510;PMS7003;28141;51.120;17.114;2022-10-17T05:28:58;32;24;18
42510;PMS7003;28141;51.120;17.114;2022-10-17T05:32:04;34;23;16
42510;PMS7003;28141;51.120;17.114;2022-10-17T05:35:08;37;28;18
42510;PMS7003;28141;51.120;17.114;2022-10-17T05:38:11;32;24;18
42510;PMS7003;28141;51.120;17.114;2022-10-17T05:41:15;31;23;17
42510;PMS7003;28141;51.120;17.114;2022-10-17T05:44:19;32;25;16
42510;PMS7003;28141;51.120;17.114;2022-10-17T05:47:22;33;26;18
42510;PMS7003;28141;51.120;17.114;2022-10-17T05:50:26;28;21;16
42510;PMS7003;28141;51.120;17.114;2022-10-17T05:53:30;36;23;16
42510;PMS7003;28141;51.120;17.114;2022-10-17T05:57:01;32;23;15
42510;PMS7003;28141;51.120;17.114;2022-10-17T06:00:05;33;24;16
42510;PMS7003;28141;51.120;17.114;2022-10-17T06:03:10;29;23;16
42510;PMS7003;28141;51.120;17.114;2022-10-17T06:06:15;31;23;16
42510;PMS7003;28141;51.120;17.114;2022-10-17T06:09:19;32;22;17
42510;PMS7003;28141;51.120;17.114;2022-10-17T06:12:23;35;25;17
42510;PMS7003;28141;51.120;17.114;2022-10-17T06:15:27;30;22;16
42510;PMS7003;28141;51.120;17.114;2022-10-17T06:18:31;31;23;16
42510;PMS7003;28141;51.120;17.114;2022-10-17T06:21:35;30;21;14
42510;PMS7003;28141;51.120;17.114;2022-10-17T06:24:40;33;23;17
42510;PMS7003;28141;51.120;17.114;2022-10-17T06:27:44;31;22;16
42510;PMS7003;28141;51.120;17.114;2022-10-17T06:31:17;34;23;15
42510;PMS7003;28141;51.120;17.114;2022-10-17T06:34:21;30;21;15
42510;PMS7003;28141;51.120;17.114;2022-10-17T06:37:24;30;22;15
42510;PMS7003;28141;51.120;17.114;2022-10-17T06:40:28;31;22;14
42510;PMS7003;28141;51.120;17.114;2022-10-17T06:43:32;31;22;15
42510;PMS7003;28141;51.120;17.114;2022-10-17T06:46:38;33;25;16
42510;PMS7003;28141;51.120;17.114;2022-10-17T06:49:42;34;25;17
42510;PMS7003;28141;51.120;17.114;2022-10-17T06:52:49;32;22;15
42510;PMS7003;28141;51.120;17.114;2022-10-17T06:55:53;32;22;15
42510;PMS7003;28141;51.120;17.114;2022-10-17T06:58:59;29;22;16
42510;PMS7003;28141;51.120;17.114;2022-10-17T07:02:03;32;22;16
42510;PMS7003;28141;51.120;17.114;2022-10-17T07:05:34;30;22;16
42510;PMS7003;28141;51.120;17.114;2022-10-17T07:08:37;29;22;16
42510;PMS7003;28141;51.120;17.114;2022-10-17T07:11:44;29;22;16
42510;PMS7003;28141;51.120;17.114;2022-10-17T07:14:47;30;22;15
42510;PMS7003;28141;51.120;17.114;2022-10-17T07:17:52;32;21;15
42510;PMS7003;28141;51.120;17.114;2022-10-17T07:20:56;30;21;15
42510;PMS7003;28141;51.120;17.114;2022-10-17T07:24:00;29;20;14
42510;PMS7003;28141;51.120;17.114;2022-10-17T07:27:05;33;22;15
42510;PMS7003;28141;51.120;17.114;2022-10-17T07:30:08;30;23;15
42510;PMS7003;28141;51.120;17.114;2022-10-17T07:33:13;27;20;14
42510;PMS7003;28141;51.120;17.114;2022-10-17T07:36:17;30;21;15
42510;PMS7003;28141;51.120;17.114;2022-10-17T07:39:21;29;22;16
42510;PMS7003;28141;51.120;17.114;2022-10-17T07:42:51;29;21;16
42510;PMS7003;28141;51.120;17.114;2022-10-17T07:45:54;28;20;14
42510;PMS7003;28141;51.120;17.114;2022-10-17T07:48:58;27;20;14
42510;PMS7003;28141;51.120;17.114;2022-10-17T07:52:01;26;18;13
42510;PMS7003;28141;51.120;17.114;2022-10-17T07:55:05;30;23;16
42510;PMS7003;28141;51.120;17.114;2022-10-17T07:58:10;25;18;13
42510;PMS7003;28141;51.120;17.114;2022-10-17T08:01:14;33;23;15
42510;PMS7003;28141;51.120;17.114;2022-10-17T08:04:18;31;20;14
42510;PMS7003;28141;51.120;17.114;2022-10-17T08:07:22;27;20;14
42510;PMS7003;28141;51.120;17.114;2022-10-17T08:10:26;28;20;14
42510;PMS7003;28141;51.120;17.114;2022-10-17T08:13:57;32;21;15
42510;PMS7003;28141;51.120;17.114;2022-10-17T08:17:01;28;20;14
42510;PMS7003;28141;51.120;17.114;2022-10-17T08:20:05;30;21;14
42510;PMS7003;28141;51.120;17.114;2022-10-17T08:23:09;29;19;13
42510;PMS7003;28141;51.120;17.114;2022-10-17T08:26:13;28;19;12
42510;PMS7003;28141;51.120;17.114;2022-10-17T08:29:19;26;19;14
42510;PMS7003;28141;51.120;17.114;2022-10-17T08:32:23;26;18;14
42510;PMS7003;28141;51.120;17.114;2022-10-17T08:35:28;29;20;15
42510;PMS7003;28141;51.120;17.114;2022-10-17T08:38:32;29;19;12
42510;PMS7003;28141;51.120;17.114;2022-10-17T08:41:43;28;19;14
42510;PMS7003;28141;51.120;17.114;2022-10-17T08:48:35;27;18;13
42510;PMS7003;28141;51.120;17.114;2022-10-17T08:51:48;27;18;13
42510;PMS7003;28141;51.120;17.114;2022-10-17T08:54:56;29;20;14
42510;PMS7003;28141;51.120;17.114;2022-10-17T08:58:01;28;18;12
42510;PMS7003;28141;51.120;17.114;2022-10-17T09:04:53;28;20;14
42510;PMS7003;28141;51.120;17.114;2022-10-17T09:08:08;25;18;12
42510;PMS7003;28141;51.120;17.114;2022-10-17T09:14:58;28;19;14
42510;PMS7003;28141;51.120;17.114;2022-10-17T09:18:21;25;18;13
42510;PMS7003;28141;51.120;17.114;2022-10-17T09:24:45;26;18;12
42510;PMS7003;28141;51.120;17.114;2022-10-17T09:31:14;26;18;13
42510;PMS7003;28141;51.120;17.114;2022-10-17T09:34:53;25;19;13
42510;PMS7003;28141;51.120;17.114;2022-10-17T09:37:57;30;21;14
42510;PMS7003;28141;51.120;17.114;2022-10-17T09:41:00;28;18;13
42510;PMS7003;28141;51.120;17.114;2022-10-17T09:50:34;27;17;12
42510;PMS7003;28141;51.120;17.114;2022-10-17T09:53:43;28;20;14
42510;PMS7003;28141;51.120;17.114;2022-10-17T09:57:20;28;19;12
42510;PMS7003;28141;51.120;17.114;2022-10-17T10:00:28;31;21;14
42510;PMS7003;28141;51.120;17.114;2022-10-17T10:03:34;25;18;12
42510;PMS7003;28141;51.120;17.114;2022-10-17T10:06:38;27;16;11
42510;PMS7003;28141;51.120;17.114;2022-10-17T10:09:44;28;19;13
42510;PMS7003;28141;51.120;17.114;2022-10-17T10:16:40;31;20;14
42510;PMS7003;28141;51.120;17.114;2022-10-17T10:19:48;28;20;13
42510;PMS7003;28141;51.120;17.114;2022-10-17T10:29:26;27;20;15
42510;PMS7003;28141;51.120;17.114;2022-10-17T10:33:02;26;18;12
42510;PMS7003;28141;51.120;17.114;2022-10-17T10:36:06;24;16;12
42510;PMS7003;28141;51.120;17.114;2022-10-17T10:39:20;28;18;13
42510;PMS7003;28141;51.120;17.114;2022-10-17T10:42:30;26;19;13
42510;PMS7003;28141;51.120;17.114;2022-10-17T10:45:40;26;19;13
42510;PMS7003;28141;51.120;17.114;2022-10-17T10:48:49;29;20;14
42510;PMS7003;28141;51.120;17.114;2022-10-17T10:52:45;29;21;13
42510;PMS7003;28141;51.120;17.114;2022-10-17T11:15:43;22;15;12
42510;PMS7003;28141;51.120;17.114;2022-10-17T11:19:23;25;16;12
42510;PMS7003;28141;51.120;17.114;2022-10-17T11:22:36;24;17;11
42510;PMS7003;28141;51.120;17.114;2022-10-17T11:25:45;25;16;11
42510;PMS7003;28141;51.120;17.114;2022-10-17T11:28:52;23;16;13
42510;PMS7003;28141;51.120;17.114;2022-10-17T11:32:02;20;13;9
42510;PMS7003;28141;51.120;17.114;2022-10-17T11:35:39;24;17;11
42510;PMS7003;28141;51.120;17.114;2022-10-17T11:42:03;24;15;10
42510;PMS7003;28141;51.120;17.114;2022-10-17T11:45:12;21;15;10
42510;PMS7003;28141;51.120;17.114;2022-10-17T11:48:27;24;15;11
42510;PMS7003;28141;51.120;17.114;2022-10-17T11:52:22;23;15;11
42510;PMS7003;28141;51.120;17.114;2022-10-17T11:55:24;24;17;11
42510;PMS7003;28141;51.120;17.114;2022-10-17T12:01:46;24;17;11
42510;PMS7003;28141;51.120;17.114;2022-10-17T12:12:01;25;17;12
42510;PMS7003;28141;51.120;17.114;2022-10-17T12:19:11;25;17;12
42510;PMS7003;28141;51.120;17.114;2022-10-17T12:25:23;25;16;12
42510;PMS7003;28141;51.120;17.114;2022-10-17T12:32:12;26;17;13
42510;PMS7003;28141;51.120;17.114;2022-10-17T12:35:20;25;16;12
42510;PMS7003;28141;51.120;17.114;2022-10-17T12:38:26;26;18;13
42510;PMS7003;28141;51.120;17.114;2022-10-17T12:44:48;25;17;12
42510;PMS7003;28141;51.120;17.114;2022-10-17T12:47:51;26;18;12
42510;PMS7003;28141;51.120;17.114;2022-10-17T12:54:40;23;16;12
42510;PMS7003;28141;51.120;17.114;2022-10-17T12:57:48;25;15;11
42510;PMS7003;28141;51.120;17.114;2022-10-17T13:00:55;26;16;11
42510;PMS7003;28141;51.120;17.114;2022-10-17T13:04:01;24;17;11
42510;PMS7003;28141;51.120;17.114;2022-10-17T13:07:15;25;15;11
42510;PMS7003;28141;51.120;17.114;2022-10-17T13:10:24;25;17;12
42510;PMS7003;28141;51.120;17.114;2022-10-17T13:13:57;24;15;10
42510;PMS7003;28141;51.120;17.114;2022-10-17T13:17:04;24;15;11
42510;PMS7003;28141;51.120;17.114;2022-10-17T13:23:33;26;19;12
42510;PMS7003;28141;51.120;17.114;2022-10-17T13:26:43;23;14;10
42510;PMS7003;28141;51.120;17.114;2022-10-17T13:33:35;25;17;11
42510;PMS7003;28141;51.120;17.114;2022-10-17T13:36:41;24;16;12
42510;PMS7003;28141;51.120;17.114;2022-10-17T13:39:46;29;19;12
42510;PMS7003;28141;51.120;17.114;2022-10-17T13:42:51;25;17;11
42510;PMS7003;28141;51.120;17.114;2022-10-17T13:45:58;24;16;11
42510;PMS7003;28141;51.120;17.114;2022-10-17T13:49:38;22;15;11
42510;PMS7003;28141;51.120;17.114;2022-10-17T13:52:43;24;14;10
42510;PMS7003;28141;51.120;17.114;2022-10-17T13:55:51;25;18;12
42510;PMS7003;28141;51.120;17.114;2022-10-17T13:58:56;25;16;12
42510;PMS7003;28141;51.120;17.114;2022-10-17T14:02:12;27;17;11
42510;PMS7003;28141;51.120;17.114;2022-10-17T14:05:20;24;17;12
42510;PMS7003;28141;51.120;17.114;2022-10-17T14:08:25;26;18;12
42510;PMS7003;28141;51.120;17.114;2022-10-17T14:15:14;30;17;11
42510;PMS7003;28141;51.120;17.114;2022-10-17T14:18:19;26;17;12
42510;PMS7003;28141;51.120;17.114;2022-10-17T14:21:27;22;14;11
42510;PMS7003;28141;51.120;17.114;2022-10-17T14:24:31;23;15;11
42510;PMS7003;28141;51.120;17.114;2022-10-17T14:27:52;20;14;9
42510;PMS7003;28141;51.120;17.114;2022-10-17T14:31:22;25;16;12
42510;PMS7003;28141;51.120;17.114;2022-10-17T14:34:32;22;14;11
42510;PMS7003;28141;51.120;17.114;2022-10-17T14:37:42;23;15;10
42510;PMS7003;28141;51.120;17.114;2022-10-17T14:40:57;21;13;9
42510;PMS7003;28141;51.120;17.114;2022-10-17T14:44:04;21;13;10
42510;PMS7003;28141;51.120;17.114;2022-10-17T14:47:41;25;17;11
42510;PMS7003;28141;51.120;17.114;2022-10-17T14:54:01;26;16;11
42510;PMS7003;28141;51.120;17.114;2022-10-17T14:57:56;22;15;10
42510;PMS7003;28141;51.120;17.114;2022-10-17T15:00:24;24;16;12
42510;PMS7003;28141;51.120;17.114;2022-10-17T15:03:29;28;17;11
42510;PMS7003;28141;51.120;17.114;2022-10-17T15:06:58;25;15;11
42510;PMS7003;28141;51.120;17.114;2022-10-17T15:10:02;23;15;11
42510;PMS7003;28141;51.120;17.114;2022-10-17T15:13:07;27;18;12
42510;PMS7003;28141;51.120;17.114;2022-10-17T15:16:18;25;16;11
42510;PMS7003;28141;51.120;17.114;2022-10-17T15:19:26;22;15;10
42510;PMS7003;28141;51.120;17.114;2022-10-17T15:22:30;23;15;10
42510;PMS7003;28141;51.120;17.114;2022-10-17T15:25:38;23;15;11
42510;PMS7003;28141;51.120;17.114;2022-10-17T15:28:42;21;14;10
42510;PMS7003;28141;51.120;17.114;2022-10-17T15:32:12;25;18;11
42510;PMS7003;28141;51.120;17.114;2022-10-17T15:35:16;23;16;10
42510;PMS7003;28141;51.120;17.114;2022-10-17T15:38:21;26;17;12
42510;PMS7003;28141;51.120;17.114;2022-10-17T15:41:25;24;16;10
42510;PMS7003;28141;51.120;17.114;2022-10-17T15:44:32;24;16;10
42510;PMS7003;28141;51.120;17.114;2022-10-17T15:47:37;23;15;10
42510;PMS7003;28141;51.120;17.114;2022-10-17T15:50:43;21;13;10
42510;PMS7003;28141;51.120;17.114;2022-10-17T15:53:47;22;14;10
42510;PMS7003;28141;51.120;17.114;2022-10-17T15:56:51;26;18;11
42510;PMS7003;28141;51.120;17.114;2022-10-17T16:00:23;22;14;11
42510;PMS7003;28141;51.120;17.114;2022-10-17T16:03:27;22;15;9
42510;PMS7003;28141;51.120;17.114;2022-10-17T16:06:32;22;15;10
42510;PMS7003;28141;51.120;17.114;2022-10-17T16:09:35;22;14;10
42510;PMS7003;28141;51.120;17.114;2022-10-17T16:12:39;23;14;10
42510;PMS7003;28141;51.120;17.114;2022-10-17T16:15:43;23;15;10
42510;PMS7003;28141;51.120;17.114;2022-10-17T16:18:46;23;15;10
42510;PMS7003;28141;51.120;17.114;2022-10-17T16:21:51;21;14;10
42510;PMS7003;28141;51.120;17.114;2022-10-17T16:24:55;21;13;9
42510;PMS7003;28141;51.120;17.114;2022-10-17T16:28:06;21;13;9
42510;PMS7003;28141;51.120;17.114;2022-10-17T16:31:38;21;14;9
42510;PMS7003;28141;51.120;17.114;2022-10-17T16:34:44;20;13;9
42510;PMS7003;28141;51.120;17.114;2022-10-17T16:37:47;22;15;9
42510;PMS7003;28141;51.120;17.114;2022-10-17T16:40:51;20;12;8
42510;PMS7003;28141;51.120;17.114;2022-10-17T16:43:56;20;12;9
42510;PMS7003;28141;51.120;17.114;2022-10-17T16:47:01;18;11;8
42510;PMS7003;28141;51.120;17.114;2022-10-17T16:50:05;20;13;8
42510;PMS7003;28141;51.120;17.114;2022-10-17T16:53:09;20;13;9
42510;PMS7003;28141;51.120;17.114;2022-10-17T16:56:14;20;12;8
42510;PMS7003;28141;51.120;17.114;2022-10-17T16:59:19;21;13;9
42510;PMS7003;28141;51.120;17.114;2022-10-17T17:02:49;19;12;9
42510;PMS7003;28141;51.120;17.114;2022-10-17T17:05:53;19;11;8
42510;PMS7003;28141;51.120;17.114;2022-10-17T17:08:56;18;11;8
42510;PMS7003;28141;51.120;17.114;2022-10-17T17:12:00;18;11;8
42510;PMS7003;28141;51.120;17.114;2022-10-17T17:15:03;21;14;8
42510;PMS7003;28141;51.120;17.114;2022-10-17T17:18:08;19;12;8
42510;PMS7003;28141;51.120;17.114;2022-10-17T17:21:13;18;11;8
42510;PMS7003;28141;51.120;17.114;2022-10-17T17:24:18;17;10;7
42510;PMS7003;28141;51.120;17.114;2022-10-17T17:27:25;21;13;8
42510;PMS7003;28141;51.120;17.114;2022-10-17T17:30:29;19;13;8
42510;PMS7003;28141;51.120;17.114;2022-10-17T17:34:04;17;10;7
42510;PMS7003;28141;51.120;17.114;2022-10-17T17:37:07;19;9;7
42510;PMS7003;28141;51.120;17.114;2022-10-17T17:40:11;18;11;7
42510;PMS7003;28141;51.120;17.114;2022-10-17T17:43:15;20;13;8
42510;PMS7003;28141;51.120;17.114;2022-10-17T17:46:19;19;12;8
42510;PMS7003;28141;51.120;17.114;2022-10-17T17:49:25;18;10;7
42510;PMS7003;28141;51.120;17.114;2022-10-17T17:52:28;18;11;7
42510;PMS7003;28141;51.120;17.114;2022-10-17T17:55:32;21;13;8
42510;PMS7003;28141;51.120;17.114;2022-10-17T17:58:36;19;11;8
42510;PMS7003;28141;51.120;17.114;2022-10-17T18:01:40;18;12;8
42510;PMS7003;28141;51.120;17.114;2022-10-17T18:05:11;18;11;7
42510;PMS7003;28141;51.120;17.114;2022-10-17T18:08:15;19;12;7
42510;PMS7003;28141;51.120;17.114;2022-10-17T18:11:19;16;10;7
42510;PMS7003;28141;51.120;17.114;2022-10-17T18:14:22;16;9;7
42510;PMS7003;28141;51.120;17.114;2022-10-17T18:17:27;16;9;7
42510;PMS7003;28141;51.120;17.114;2022-10-17T18:20:31;20;13;7
42510;PMS7003;28141;51.120;17.114;2022-10-17T18:23:37;19;11;7
42510;PMS7003;28141;51.120;17.114;2022-10-17T18:26:42;17;10;7
42510;PMS7003;28141;51.120;17.114;2022-10-17T18:29:45;17;9;6
42510;PMS7003;28141;51.120;17.114;2022-10-17T18:32:49;17;10;7
42510;PMS7003;28141;51.120;17.114;2022-10-17T18:35:52;18;10;6
42510;PMS7003;28141;51.120;17.114;2022-10-17T18:39:22;17;9;7
42510;PMS7003;28141;51.120;17.114;2022-10-17T18:42:26;16;9;7
42510;PMS7003;28141;51.120;17.114;2022-10-17T18:45:29;18;11;7
42510;PMS7003;28141;51.120;17.114;2022-10-17T18:48:34;16;9;7
42510;PMS7003;28141;51.120;17.114;2022-10-17T18:51:38;16;9;5
42510;PMS7003;28141;51.120;17.114;2022-10-17T18:54:42;16;9;7
42510;PMS7003;28141;51.120;17.114;2022-10-17T18:57:49;16;9;6
42510;PMS7003;28141;51.120;17.114;2022-10-17T19:00:53;15;8;6
42510;PMS7003;28141;51.120;17.114;2022-10-17T19:03:57;17;10;6
42510;PMS7003;28141;51.120;17.114;2022-10-17T19:07:01;17;10;7
42510;PMS7003;28141;51.120;17.114;2022-10-17T19:10:31;16;9;6
42510;PMS7003;28141;51.120;17.114;2022-10-17T19:13:36;20;11;7
42510;PMS7003;28141;51.120;17.114;2022-10-17T19:16:41;17;11;6
42510;PMS7003;28141;51.120;17.114;2022-10-17T19:19:50;16;8;6
42510;PMS7003;28141;51.120;17.114;2022-10-17T19:22:56;16;9;5
42510;PMS7003;28141;51.120;17.114;2022-10-17T19:26:00;16;8;6
42510;PMS7003;28141;51.120;17.114;2022-10-17T19:29:08;15;8;6
42510;PMS7003;28141;51.120;17.114;2022-10-17T19:32:15;16;9;6
42510;PMS7003;28141;51.120;17.114;2022-10-17T19:35:53;17;9;6
42510;PMS7003;28141;51.120;17.114;2022-10-17T19:38:59;16;10;6
42510;PMS7003;28141;51.120;17.114;2022-10-17T19:42:04;16;9;6
42510;PMS7003;28141;51.120;17.114;2022-10-17T19:45:08;17;9;6
42510;PMS7003;28141;51.120;17.114;2022-10-17T19:48:12;16;9;6
42510;PMS7003;28141;51.120;17.114;2022-10-17T19:51:16;18;9;6
42510;PMS7003;28141;51.120;17.114;2022-10-17T19:54:22;15;7;5
42510;PMS7003;28141;51.120;17.114;2022-10-17T19:57:26;17;9;5
42510;PMS7003;28141;51.120;17.114;2022-10-17T20:00:29;17;9;5
42510;PMS7003;28141;51.120;17.114;2022-10-17T20:03:59;17;8;6
42510;PMS7003;28141;51.120;17.114;2022-10-17T20:07:03;15;8;5
42510;PMS7003;28141;51.120;17.114;2022-10-17T20:10:07;15;7;6
42510;PMS7003;28141;51.120;17.114;2022-10-17T20:13:11;15;8;6
42510;PMS7003;28141;51.120;17.114;2022-10-17T20:16:20;15;8;6
42510;PMS7003;28141;51.120;17.114;2022-10-17T20:19:25;15;7;5
42510;PMS7003;28141;51.120;17.114;2022-10-17T20:22:29;20;12;9
42510;PMS7003;28141;51.120;17.114;2022-10-17T20:25:32;16;9;7
42510;PMS7003;28141;51.120;17.114;2022-10-17T20:28:40;16;8;6
42510;PMS7003;28141;51.120;17.114;2022-10-17T20:32:11;16;9;6
42510;PMS7003;28141;51.120;17.114;2022-10-17T20:35:15;16;9;5
42510;PMS7003;28141;51.120;17.114;2022-10-17T20:38:19;16;8;5
42510;PMS7003;28141;51.120;17.114;2022-10-17T20:41:23;14;7;4
42510;PMS7003;28141;51.120;17.114;2022-10-17T20:44:28;14;7;5
42510;PMS7003;28141;51.120;17.114;2022-10-17T20:47:32;15;8;5
42510;PMS7003;28141;51.120;17.114;2022-10-17T20:50:36;15;8;5
42510;PMS7003;28141;51.120;17.114;2022-10-17T20:53:39;16;8;6
42510;PMS7003;28141;51.120;17.114;2022-10-17T20:56:43;18;9;7
42510;PMS7003;28141;51.120;17.114;2022-10-17T20:59:46;17;7;4
42510;PMS7003;28141;51.120;17.114;2022-10-17T21:02:50;16;8;5
42510;PMS7003;28141;51.120;17.114;2022-10-17T21:06:20;16;8;5
42510;PMS7003;28141;51.120;17.114;2022-10-17T21:09:24;13;7;4
42510;PMS7003;28141;51.120;17.114;2022-10-17T21:12:28;14;6;5
42510;PMS7003;28141;51.120;17.114;2022-10-17T21:15:31;15;7;5
42510;PMS7003;28141;51.120;17.114;2022-10-17T21:18:35;15;7;5
42510;PMS7003;28141;51.120;17.114;2022-10-17T21:21:40;15;7;5
42510;PMS7003;28141;51.120;17.114;2022-10-17T21:24:45;14;7;5
42510;PMS7003;28141;51.120;17.114;2022-10-17T21:27:50;14;8;5
42510;PMS7003;28141;51.120;17.114;2022-10-17T21:31:04;14;7;5
42510;PMS7003;28141;51.120;17.114;2022-10-17T21:34:35;16;8;5
42510;PMS7003;28141;51.120;17.114;2022-10-17T21:37:39;14;7;4
42510;PMS7003;28141;51.120;17.114;2022-10-17T21:40:45;14;8;5
42510;PMS7003;28141;51.120;17.114;2022-10-17T21:43:55;15;8;5
42510;PMS7003;28141;51.120;17.114;2022-10-17T21:47:04;14;7;5
42510;PMS7003;28141;51.120;17.114;2022-10-17T21:50:08;14;7;5
42510;PMS7003;28141;51.120;17.114;2022-10-17T21:53:12;14;7;4
42510;PMS7003;28141;51.120;17.114;2022-10-17T21:56:25;12;6;4
42510;PMS7003;28141;51.120;17.114;2022-10-17T21:59:51;14;7;4
42510;PMS7003;28141;51.120;17.114;2022-10-17T22:02:55;16;7;5
42510;PMS7003;28141;51.120;17.114;2022-10-17T22:05:58;15;8;5
42510;PMS7003;28141;51.120;17.114;2022-10-17T22:09:03;14;7;5
42510;PMS7003;28141;51.120;17.114;2022-10-17T22:12:08;16;7;5
42510;PMS7003;28141;51.120;17.114;2022-10-17T22:15:12;14;7;5
42510;PMS7003;28141;51.120;17.114;2022-10-17T22:18:15;14;7;5
42510;PMS7003;28141;51.120;17.114;2022-10-17T22:21:20;13;7;5
42510;PMS7003;28141;51.120;17.114;2022-10-17T22:24:24;16;9;6
42510;PMS7003;28141;51.120;17.114;2022-10-17T22:27:28;14;7;5
42510;PMS7003;28141;51.120;17.114;2022-10-17T22:30:31;14;7;5
42510;PMS7003;28141;51.120;17.114;2022-10-17T22:34:01;14;7;6